FHY7BM LTFM-LTBS
Flight info
| Callsign | FHY7BM |
|---|---|
| Flight time | 0h 53m |
| Altitude | 37000 |
| Route | RATVU UT35 NUMTI DCT KULAR UT44 ATSAL |
| Aircraft | MD11/H-SDE1E2E3FGHIJ2J3J4J5M1RWXY/LB1D1 |
Departure
| Time | 2026-05-04 09:31 |
|---|---|
| Airport | İstanbul Airport (LTFM) |
Arrival
| Time | 2026-05-04 10:25 |
|---|---|
| Airport | Dalaman International Airport (LTBS) |
| Time | Latitude | Longitude | Altitude | Speed | Heading |
|---|---|---|---|---|---|
| 2026-05-04 09:27 | 41.26472 | 28.73000 | 345 ft | 11 kts | 179° |
| 2026-05-04 09:27 | 41.26394 | 28.73001 | 351 ft | 11 kts | 179° |
| 2026-05-04 09:28 | 41.26314 | 28.73002 | 350 ft | 12 kts | 179° |
| 2026-05-04 09:28 | 41.26248 | 28.72991 | 351 ft | 4 kts | 201° |
| 2026-05-04 09:28 | 41.26239 | 28.72977 | 347 ft | 2 kts | 228° |
| 2026-05-04 09:28 | 41.26230 | 28.72964 | 347 ft | 2 kts | 228° |
| 2026-05-04 09:29 | 41.26223 | 28.72951 | 351 ft | 0 kts | 237° |
| 2026-05-04 09:29 | 41.26216 | 28.72922 | 353 ft | 7 kts | 255° |
| 2026-05-04 09:29 | 41.26208 | 28.72866 | 351 ft | 3 kts | 269° |
| 2026-05-04 09:29 | 41.26210 | 28.72813 | 350 ft | 9 kts | 274° |
| 2026-05-04 09:30 | 41.26211 | 28.72698 | 341 ft | 16 kts | 270° |
| 2026-05-04 09:30 | 41.26215 | 28.72587 | 343 ft | 6 kts | 285° |
| 2026-05-04 09:30 | 41.26233 | 28.72546 | 346 ft | 8 kts | 311° |
| 2026-05-04 09:30 | 41.26276 | 28.72524 | 351 ft | 0 kts | 0° |
| 2026-05-04 09:31 | 41.26365 | 28.72523 | 350 ft | 57 kts | 359° |
| 2026-05-04 09:31 | 41.27147 | 28.72498 | 401 ft | 156 kts | 356° |
| 2026-05-04 09:31 | 41.28265 | 28.72427 | 1567 ft | 158 kts | 355° |
| 2026-05-04 09:31 | 41.29364 | 28.72344 | 3075 ft | 163 kts | 357° |
| 2026-05-04 09:32 | 41.30127 | 28.72308 | 3899 ft | 171 kts | 358° |
| 2026-05-04 09:32 | 41.31446 | 28.72270 | 4479 ft | 206 kts | 358° |
| 2026-05-04 09:34 | 41.37689 | 28.62493 | 9079 ft | 287 kts | 255° |
| 2026-05-04 09:34 | 41.36768 | 28.60074 | 10188 ft | 302 kts | 240° |
| 2026-05-04 09:34 | 41.35319 | 28.57772 | 10485 ft | 352 kts | 225° |
| 2026-05-04 09:34 | 41.33147 | 28.55916 | 11018 ft | 384 kts | 204° |
| 2026-05-04 09:35 | 41.30543 | 28.54964 | 12011 ft | 394 kts | 187° |
| 2026-05-04 09:35 | 41.27778 | 28.54834 | 13003 ft | 402 kts | 174° |
| 2026-05-04 09:35 | 41.25041 | 28.55642 | 13945 ft | 407 kts | 154° |
| 2026-05-04 09:35 | 41.22644 | 28.57577 | 14867 ft | 402 kts | 136° |
| 2026-05-04 09:37 | 41.09446 | 28.77223 | 21191 ft | 419 kts | 118° |
| 2026-05-04 09:37 | 41.07858 | 28.80494 | 21916 ft | 426 kts | 121° |
| 2026-05-04 09:38 | 41.05827 | 28.83427 | 22725 ft | 439 kts | 136° |
| 2026-05-04 09:38 | 41.03241 | 28.85657 | 23489 ft | 452 kts | 150° |
| 2026-05-04 09:38 | 41.00283 | 28.87039 | 24134 ft | 462 kts | 163° |
| 2026-05-04 09:38 | 40.97121 | 28.87916 | 24812 ft | 467 kts | 166° |
| 2026-05-04 09:39 | 40.93925 | 28.88764 | 25518 ft | 470 kts | 164° |
| 2026-05-04 09:39 | 40.90695 | 28.89791 | 26221 ft | 472 kts | 161° |
| 2026-05-04 09:39 | 40.87526 | 28.90787 | 26856 ft | 478 kts | 166° |
| 2026-05-04 09:39 | 40.84208 | 28.91370 | 27548 ft | 484 kts | 171° |
| 2026-05-04 09:40 | 40.80830 | 28.91690 | 28208 ft | 490 kts | 173° |
| 2026-05-04 09:40 | 40.77411 | 28.91903 | 28860 ft | 494 kts | 173° |
| 2026-05-04 09:40 | 40.73963 | 28.92099 | 29483 ft | 498 kts | 173° |
| 2026-05-04 09:40 | 40.70490 | 28.92315 | 30098 ft | 501 kts | 172° |
| 2026-05-04 09:41 | 40.67006 | 28.92558 | 30783 ft | 500 kts | 172° |
| 2026-05-04 09:42 | 40.45218 | 29.01309 | 35467 ft | 469 kts | 141° |
| 2026-05-04 09:43 | 40.42579 | 29.03872 | 35857 ft | 472 kts | 141° |
| 2026-05-04 09:43 | 40.39896 | 29.06383 | 36225 ft | 474 kts | 143° |
| 2026-05-04 09:43 | 40.37168 | 29.08837 | 36603 ft | 476 kts | 144° |
| 2026-05-04 09:43 | 40.34414 | 29.11244 | 36915 ft | 479 kts | 144° |
| 2026-05-04 09:44 | 40.28812 | 29.16043 | 36998 ft | 483 kts | 145° |
| 2026-05-04 09:46 | 40.04610 | 29.31317 | 37003 ft | 490 kts | 159° |
| 2026-05-04 09:46 | 39.98159 | 29.34316 | 37002 ft | 493 kts | 159° |
| 2026-05-04 09:47 | 39.91773 | 29.37364 | 36995 ft | 492 kts | 158° |
| 2026-05-04 09:49 | 39.69619 | 29.48627 | 36980 ft | 488 kts | 169° |
| 2026-05-04 09:49 | 39.66245 | 29.49083 | 36979 ft | 488 kts | 179° |
| 2026-05-04 09:51 | 39.45057 | 29.36551 | 36977 ft | 489 kts | 216° |
| 2026-05-04 09:51 | 39.39435 | 29.31575 | 36979 ft | 490 kts | 215° |
| 2026-05-04 09:52 | 39.33751 | 29.26684 | 36981 ft | 492 kts | 214° |
| 2026-05-04 09:52 | 39.28032 | 29.21821 | 36984 ft | 493 kts | 214° |
| 2026-05-04 09:53 | 39.22305 | 29.16948 | 36987 ft | 493 kts | 214° |
| 2026-05-04 09:53 | 39.16594 | 29.12078 | 36989 ft | 492 kts | 215° |
| 2026-05-04 09:54 | 39.10890 | 29.07231 | 36987 ft | 490 kts | 215° |
| 2026-05-04 09:54 | 39.05182 | 29.02391 | 36985 ft | 492 kts | 215° |
| 2026-05-04 09:55 | 38.99476 | 28.97549 | 36988 ft | 490 kts | 215° |
| 2026-05-04 09:55 | 38.93773 | 28.92730 | 36986 ft | 492 kts | 215° |
| 2026-05-04 09:56 | 38.88061 | 28.87903 | 36989 ft | 491 kts | 215° |
| 2026-05-04 09:56 | 38.82352 | 28.83107 | 36991 ft | 490 kts | 214° |
| 2026-05-04 09:57 | 38.76636 | 28.78331 | 36994 ft | 490 kts | 214° |
| 2026-05-04 09:57 | 38.70938 | 28.73564 | 36997 ft | 489 kts | 214° |
| 2026-05-04 09:58 | 38.65247 | 28.68804 | 36997 ft | 488 kts | 214° |
| 2026-05-04 09:58 | 38.62399 | 28.66462 | 36846 ft | 483 kts | 212° |
| 2026-05-04 09:58 | 38.59443 | 28.64505 | 36578 ft | 479 kts | 202° |
| 2026-05-04 10:00 | 38.36394 | 28.65051 | 33201 ft | 478 kts | 174° |
| 2026-05-04 10:00 | 38.33064 | 28.65365 | 32672 ft | 482 kts | 175° |
| 2026-05-04 10:02 | 38.09191 | 28.67334 | 28835 ft | 499 kts | 175° |
| 2026-05-04 10:04 | 37.85576 | 28.69259 | 24839 ft | 471 kts | 177° |
| 2026-05-04 10:04 | 37.82324 | 28.69525 | 24286 ft | 467 kts | 177° |
| 2026-05-04 10:04 | 37.79100 | 28.69788 | 23747 ft | 462 kts | 177° |
| 2026-05-04 10:04 | 37.75903 | 28.70049 | 23151 ft | 458 kts | 177° |
| 2026-05-04 10:05 | 37.72737 | 28.70304 | 22570 ft | 454 kts | 178° |
| 2026-05-04 10:05 | 37.69597 | 28.70539 | 21994 ft | 450 kts | 178° |
| 2026-05-04 10:05 | 37.66486 | 28.70761 | 21405 ft | 446 kts | 178° |
| 2026-05-04 10:05 | 37.63413 | 28.70977 | 20830 ft | 437 kts | 178° |
| 2026-05-04 10:06 | 37.60361 | 28.71189 | 20270 ft | 439 kts | 178° |
| 2026-05-04 10:06 | 37.57307 | 28.71402 | 19705 ft | 437 kts | 178° |
| 2026-05-04 10:06 | 37.54300 | 28.71613 | 19268 ft | 429 kts | 179° |
| 2026-05-04 10:08 | 37.36488 | 28.72360 | 18664 ft | 424 kts | 181° |
| 2026-05-04 10:08 | 37.33544 | 28.72451 | 18614 ft | 423 kts | 180° |
| 2026-05-04 10:08 | 37.30601 | 28.72544 | 18555 ft | 422 kts | 181° |
| 2026-05-04 10:08 | 37.27661 | 28.72638 | 18409 ft | 422 kts | 181° |
| 2026-05-04 10:09 | 37.24738 | 28.72733 | 17992 ft | 420 kts | 181° |
| 2026-05-04 10:09 | 37.21828 | 28.72827 | 17549 ft | 417 kts | 181° |
| 2026-05-04 10:09 | 37.18962 | 28.72919 | 17311 ft | 415 kts | 181° |
| 2026-05-04 10:09 | 37.16134 | 28.73014 | 17225 ft | 385 kts | 181° |
| 2026-05-04 10:10 | 37.13601 | 28.73104 | 17108 ft | 354 kts | 181° |
| 2026-05-04 10:10 | 37.11178 | 28.73185 | 17000 ft | 344 kts | 181° |
| 2026-05-04 10:10 | 37.08800 | 28.73260 | 16836 ft | 342 kts | 181° |
| 2026-05-04 10:10 | 37.06434 | 28.73287 | 16452 ft | 339 kts | 184° |
| 2026-05-04 10:11 | 37.04085 | 28.73183 | 15874 ft | 336 kts | 186° |
| 2026-05-04 10:11 | 37.01761 | 28.73017 | 15336 ft | 334 kts | 187° |
| 2026-05-04 10:11 | 36.99453 | 28.72842 | 14791 ft | 330 kts | 187° |
| 2026-05-04 10:11 | 36.97170 | 28.72667 | 14259 ft | 327 kts | 187° |
| 2026-05-04 10:12 | 36.94994 | 28.72494 | 13746 ft | 325 kts | 186° |
| 2026-05-04 10:12 | 36.92727 | 28.72315 | 13192 ft | 326 kts | 186° |
| 2026-05-04 10:12 | 36.90486 | 28.72106 | 12645 ft | 321 kts | 189° |
| 2026-05-04 10:12 | 36.88295 | 28.71614 | 12144 ft | 319 kts | 195° |
| 2026-05-04 10:13 | 36.86147 | 28.70975 | 11626 ft | 315 kts | 197° |
| 2026-05-04 10:13 | 36.84029 | 28.70308 | 11152 ft | 314 kts | 197° |
| 2026-05-04 10:13 | 36.81914 | 28.69632 | 10672 ft | 313 kts | 196° |
| 2026-05-04 10:13 | 36.79812 | 28.68962 | 10185 ft | 311 kts | 196° |
| 2026-05-04 10:14 | 36.77738 | 28.68307 | 9790 ft | 305 kts | 196° |
| 2026-05-04 10:14 | 36.75690 | 28.67662 | 9330 ft | 302 kts | 196° |
| 2026-05-04 10:16 | 36.62585 | 28.63415 | 6877 ft | 267 kts | 197° |
| 2026-05-04 10:16 | 36.60801 | 28.62810 | 6479 ft | 264 kts | 197° |
| 2026-05-04 10:16 | 36.59035 | 28.62220 | 6050 ft | 261 kts | 197° |
| 2026-05-04 10:16 | 36.57297 | 28.61635 | 5645 ft | 256 kts | 198° |
| 2026-05-04 10:17 | 36.55557 | 28.61287 | 5268 ft | 254 kts | 180° |
| 2026-05-04 10:17 | 36.53874 | 28.61888 | 4910 ft | 255 kts | 146° |
| 2026-05-04 10:19 | 36.53443 | 28.72885 | 3040 ft | 190 kts | 13° |
| 2026-05-04 10:19 | 36.54957 | 28.73503 | 2888 ft | 185 kts | 14° |
| 2026-05-04 10:19 | 36.55750 | 28.73853 | 2835 ft | 173 kts | 13° |
| 2026-05-04 10:19 | 36.56869 | 28.74315 | 2767 ft | 169 kts | 11° |
| 2026-05-04 10:20 | 36.57971 | 28.74698 | 2553 ft | 164 kts | 9° |
| 2026-05-04 10:20 | 36.59044 | 28.75060 | 2309 ft | 149 kts | 9° |
| 2026-05-04 10:20 | 36.59981 | 28.75379 | 2087 ft | 138 kts | 9° |
| 2026-05-04 10:20 | 36.60914 | 28.75696 | 1916 ft | 135 kts | 9° |
| 2026-05-04 10:21 | 36.61806 | 28.75999 | 1769 ft | 135 kts | 8° |
| 2026-05-04 10:21 | 36.62720 | 28.76309 | 1575 ft | 134 kts | 8° |
| 2026-05-04 10:21 | 36.63611 | 28.76611 | 1393 ft | 135 kts | 10° |
| 2026-05-04 10:21 | 36.64508 | 28.76925 | 1219 ft | 134 kts | 8° |
| 2026-05-04 10:22 | 36.66325 | 28.77570 | 847 ft | 134 kts | 9° |
| 2026-05-04 10:22 | 36.67223 | 28.77859 | 628 ft | 134 kts | 11° |
| 2026-05-04 10:22 | 36.68115 | 28.78180 | 423 ft | 133 kts | 9° |
| 2026-05-04 10:23 | 36.69009 | 28.78479 | 294 ft | 133 kts | 9° |
| 2026-05-04 10:23 | 36.69895 | 28.78769 | 98 ft | 132 kts | 10° |
| 2026-05-04 10:25 | 36.72153 | 28.79377 | 36 ft | 12 kts | 343° |
| 2026-05-04 10:25 | 36.72228 | 28.79351 | 36 ft | 11 kts | 346° |
| 2026-05-04 10:25 | 36.72279 | 28.79296 | 36 ft | 9 kts | 296° |
| 2026-05-04 10:25 | 36.72291 | 28.79227 | 36 ft | 6 kts | 268° |
| 2026-05-04 10:26 | 36.72224 | 28.79148 | 36 ft | 18 kts | 207° |
| 2026-05-04 10:26 | 36.72186 | 28.79129 | 36 ft | 2 kts | 199° |
| 2026-05-04 10:26 | 36.72172 | 28.79121 | 35 ft | 1 kts | 209° |
| 2026-05-04 10:26 | 36.72165 | 28.79114 | 34 ft | 5 kts | 218° |
| 2026-05-04 10:27 | 36.72157 | 28.79097 | 36 ft | 2 kts | 243° |
| 2026-05-04 10:27 | 36.72155 | 28.79083 | 36 ft | 1 kts | 260° |
| 2026-05-04 10:27 | 36.72156 | 28.79066 | 36 ft | 2 kts | 281° |
| 2026-05-04 10:27 | 36.72160 | 28.79054 | 36 ft | 0 kts | 289° |